Terminal Aerodrome Forecast
Issued by NWS El Paso, TX

Home | Current Version | Previous Version | Text Only | Print | Product List | Glossary On
Versions: 1 2 3 4 5 6 7 8 9 10 11 12 13
900
FTUS44 KEPZ 261151
TAFELP
TAF
KELP 261151Z 2612/2712 01015KT P6SM FEW050 SCT110 BKN250
     FM262100 10008KT P6SM VCTS SCT090CB SCT150
     FM270600 11007KT P6SM OVC250=

USA.gov is the U.S. government's official web portal to all federal, state and local government web resources and services.